sensor_id;sensor_type;location;lat;lon;timestamp;temperature;humidity
9167;DHT22;4618;48.818;9.088;2023-08-20T00:01:26;21.80;99.90
9167;DHT22;4618;48.818;9.088;2023-08-20T00:03:53;21.80;1.00
9167;DHT22;4618;48.818;9.088;2023-08-20T00:06:19;21.70;1.00
9167;DHT22;4618;48.818;9.088;2023-08-20T00:08:45;21.60;1.00
9167;DHT22;4618;48.818;9.088;2023-08-20T00:11:12;21.50;1.00
9167;DHT22;4618;48.818;9.088;2023-08-20T00:13:37;21.70;1.00
9167;DHT22;4618;48.818;9.088;2023-08-20T00:16:03;21.80;1.00
9167;DHT22;4618;48.818;9.088;2023-08-20T00:18:29;21.80;99.90
9167;DHT22;4618;48.818;9.088;2023-08-20T00:20:55;21.80;99.90
9167;DHT22;4618;48.818;9.088;2023-08-20T00:23:21;22.00;99.90
9167;DHT22;4618;48.818;9.088;2023-08-20T00:25:47;22.00;99.90
9167;DHT22;4618;48.818;9.088;2023-08-20T00:28:12;21.90;99.90
9167;DHT22;4618;48.818;9.088;2023-08-20T00:30:39;21.90;99.90
9167;DHT22;4618;48.818;9.088;2023-08-20T00:33:04;21.80;99.90
9167;DHT22;4618;48.818;9.088;2023-08-20T00:35:30;21.80;99.90
9167;DHT22;4618;48.818;9.088;2023-08-20T00:37:56;21.80;99.90
9167;DHT22;4618;48.818;9.088;2023-08-20T00:40:22;21.70;1.00
9167;DHT22;4618;48.818;9.088;2023-08-20T00:42:47;21.70;1.00
9167;DHT22;4618;48.818;9.088;2023-08-20T00:45:13;21.70;1.00
9167;DHT22;4618;48.818;9.088;2023-08-20T00:47:38;21.80;99.90
9167;DHT22;4618;48.818;9.088;2023-08-20T00:50:05;21.70;99.90
9167;DHT22;4618;48.818;9.088;2023-08-20T00:52:34;21.70;99.90
9167;DHT22;4618;48.818;9.088;2023-08-20T00:55:00;21.50;1.00
9167;DHT22;4618;48.818;9.088;2023-08-20T00:57:31;21.40;1.00
9167;DHT22;4618;48.818;9.088;2023-08-20T00:59:56;21.40;1.00
9167;DHT22;4618;48.818;9.088;2023-08-20T01:02:22;21.40;1.00
9167;DHT22;4618;48.818;9.088;2023-08-20T01:04:48;21.30;1.00
9167;DHT22;4618;48.818;9.088;2023-08-20T01:12:51;21.20;11.90
9167;DHT22;4618;48.818;9.088;2023-08-20T01:15:17;21.20;99.90
9167;DHT22;4618;48.818;9.088;2023-08-20T01:17:43;21.20;99.90
9167;DHT22;4618;48.818;9.088;2023-08-20T01:20:11;21.20;99.90
9167;DHT22;4618;48.818;9.088;2023-08-20T01:25:30;21.20;99.90
9167;DHT22;4618;48.818;9.088;2023-08-20T01:30:48;21.20;99.90
9167;DHT22;4618;48.818;9.088;2023-08-20T01:33:14;21.00;99.90
9167;DHT22;4618;48.818;9.088;2023-08-20T01:35:40;21.00;99.90
9167;DHT22;4618;48.818;9.088;2023-08-20T01:38:06;21.00;99.90
9167;DHT22;4618;48.818;9.088;2023-08-20T01:40:31;21.00;99.90
9167;DHT22;4618;48.818;9.088;2023-08-20T01:42:57;20.90;1.00
9167;DHT22;4618;48.818;9.088;2023-08-20T01:45:23;20.90;99.90
9167;DHT22;4618;48.818;9.088;2023-08-20T01:47:49;20.80;1.00
9167;DHT22;4618;48.818;9.088;2023-08-20T01:50:14;20.80;1.00
9167;DHT22;4618;48.818;9.088;2023-08-20T01:52:40;20.80;1.00
9167;DHT22;4618;48.818;9.088;2023-08-20T01:55:06;20.80;1.00
9167;DHT22;4618;48.818;9.088;2023-08-20T01:57:32;20.70;1.00
9167;DHT22;4618;48.818;9.088;2023-08-20T01:59:57;20.70;1.00
9167;DHT22;4618;48.818;9.088;2023-08-20T02:02:24;20.70;1.00
9167;DHT22;4618;48.818;9.088;2023-08-20T02:04:49;20.70;1.00
9167;DHT22;4618;48.818;9.088;2023-08-20T02:07:15;20.70;1.00
9167;DHT22;4618;48.818;9.088;2023-08-20T02:09:41;20.60;1.00
9167;DHT22;4618;48.818;9.088;2023-08-20T02:12:06;20.50;1.00
9167;DHT22;4618;48.818;9.088;2023-08-20T02:14:32;20.50;1.00
9167;DHT22;4618;48.818;9.088;2023-08-20T02:17:01;20.40;1.00
9167;DHT22;4618;48.818;9.088;2023-08-20T02:19:27;20.40;1.00
9167;DHT22;4618;48.818;9.088;2023-08-20T02:21:53;20.50;1.00
9167;DHT22;4618;48.818;9.088;2023-08-20T02:24:18;20.50;1.00
9167;DHT22;4618;48.818;9.088;2023-08-20T02:26:44;20.40;1.00
9167;DHT22;4618;48.818;9.088;2023-08-20T02:29:10;20.40;13.80
9167;DHT22;4618;48.818;9.088;2023-08-20T02:31:35;20.40;18.30
9167;DHT22;4618;48.818;9.088;2023-08-20T02:34:01;20.30;13.10
9167;DHT22;4618;48.818;9.088;2023-08-20T02:36:27;20.30;39.00
9167;DHT22;4618;48.818;9.088;2023-08-20T02:38:52;20.30;99.90
9167;DHT22;4618;48.818;9.088;2023-08-20T02:41:18;20.30;99.40
9167;DHT22;4618;48.818;9.088;2023-08-20T02:43:45;20.20;99.90
9167;DHT22;4618;48.818;9.088;2023-08-20T02:46:10;20.20;99.90
9167;DHT22;4618;48.818;9.088;2023-08-20T02:48:36;20.10;99.90
9167;DHT22;4618;48.818;9.088;2023-08-20T02:51:01;20.10;99.90
9167;DHT22;4618;48.818;9.088;2023-08-20T02:53:28;20.10;99.90
9167;DHT22;4618;48.818;9.088;2023-08-20T02:55:54;20.10;99.90
9167;DHT22;4618;48.818;9.088;2023-08-20T02:58:19;20.10;99.90
9167;DHT22;4618;48.818;9.088;2023-08-20T03:00:45;20.10;99.90
9167;DHT22;4618;48.818;9.088;2023-08-20T03:03:11;20.00;99.90
9167;DHT22;4618;48.818;9.088;2023-08-20T03:05:37;19.90;99.90
9167;DHT22;4618;48.818;9.088;2023-08-20T03:08:03;19.90;99.90
9167;DHT22;4618;48.818;9.088;2023-08-20T03:10:32;19.80;99.90
9167;DHT22;4618;48.818;9.088;2023-08-20T03:13:03;19.80;99.90
9167;DHT22;4618;48.818;9.088;2023-08-20T03:15:30;19.70;99.90
9167;DHT22;4618;48.818;9.088;2023-08-20T03:17:55;19.70;99.90
9167;DHT22;4618;48.818;9.088;2023-08-20T03:20:21;19.70;99.90
9167;DHT22;4618;48.818;9.088;2023-08-20T03:22:47;19.70;99.90
9167;DHT22;4618;48.818;9.088;2023-08-20T03:25:12;19.70;99.90
9167;DHT22;4618;48.818;9.088;2023-08-20T03:27:38;19.80;99.90
9167;DHT22;4618;48.818;9.088;2023-08-20T03:30:04;19.80;99.90
9167;DHT22;4618;48.818;9.088;2023-08-20T03:32:30;19.80;99.90
9167;DHT22;4618;48.818;9.088;2023-08-20T03:34:56;19.80;99.90
9167;DHT22;4618;48.818;9.088;2023-08-20T03:37:27;19.60;99.90
9167;DHT22;4618;48.818;9.088;2023-08-20T03:39:52;19.60;99.90
9167;DHT22;4618;48.818;9.088;2023-08-20T03:42:18;19.60;99.90
9167;DHT22;4618;48.818;9.088;2023-08-20T03:44:43;19.50;1.00
9167;DHT22;4618;48.818;9.088;2023-08-20T03:47:09;19.50;1.00
9167;DHT22;4618;48.818;9.088;2023-08-20T03:49:34;19.50;1.00
9167;DHT22;4618;48.818;9.088;2023-08-20T03:52:00;19.50;1.00
9167;DHT22;4618;48.818;9.088;2023-08-20T03:54:28;19.50;1.00
9167;DHT22;4618;48.818;9.088;2023-08-20T03:56:54;19.50;1.00
9167;DHT22;4618;48.818;9.088;2023-08-20T03:59:19;19.50;1.00
9167;DHT22;4618;48.818;9.088;2023-08-20T04:01:45;19.60;1.00
9167;DHT22;4618;48.818;9.088;2023-08-20T04:04:10;19.50;1.00
9167;DHT22;4618;48.818;9.088;2023-08-20T04:06:36;19.50;1.00
9167;DHT22;4618;48.818;9.088;2023-08-20T04:09:02;19.50;1.00
9167;DHT22;4618;48.818;9.088;2023-08-20T04:11:28;19.50;1.00
9167;DHT22;4618;48.818;9.088;2023-08-20T04:13:53;19.50;1.00
9167;DHT22;4618;48.818;9.088;2023-08-20T04:16:19;19.50;1.00
9167;DHT22;4618;48.818;9.088;2023-08-20T04:18:45;19.60;1.00
9167;DHT22;4618;48.818;9.088;2023-08-20T04:21:10;19.50;1.00
9167;DHT22;4618;48.818;9.088;2023-08-20T04:23:36;19.50;1.00
9167;DHT22;4618;48.818;9.088;2023-08-20T04:26:02;19.40;1.00
9167;DHT22;4618;48.818;9.088;2023-08-20T04:28:27;19.40;1.00
9167;DHT22;4618;48.818;9.088;2023-08-20T04:30:53;19.30;1.00
9167;DHT22;4618;48.818;9.088;2023-08-20T04:33:20;19.30;1.00
9167;DHT22;4618;48.818;9.088;2023-08-20T04:35:46;19.30;1.00
9167;DHT22;4618;48.818;9.088;2023-08-20T04:38:11;19.20;1.00
9167;DHT22;4618;48.818;9.088;2023-08-20T04:40:37;19.20;1.00
9167;DHT22;4618;48.818;9.088;2023-08-20T04:43:02;19.10;1.00
9167;DHT22;4618;48.818;9.088;2023-08-20T04:45:28;19.20;1.00
9167;DHT22;4618;48.818;9.088;2023-08-20T04:47:53;19.20;1.00
9167;DHT22;4618;48.818;9.088;2023-08-20T04:50:19;19.20;1.00
9167;DHT22;4618;48.818;9.088;2023-08-20T04:52:45;19.30;1.00
9167;DHT22;4618;48.818;9.088;2023-08-20T04:55:10;19.40;1.00
9167;DHT22;4618;48.818;9.088;2023-08-20T04:57:36;19.40;1.00
9167;DHT22;4618;48.818;9.088;2023-08-20T05:00:02;19.40;1.00
9167;DHT22;4618;48.818;9.088;2023-08-20T05:02:28;19.30;1.00
9167;DHT22;4618;48.818;9.088;2023-08-20T05:04:53;19.30;1.00
9167;DHT22;4618;48.818;9.088;2023-08-20T05:07:19;19.40;1.00
9167;DHT22;4618;48.818;9.088;2023-08-20T05:09:45;19.40;1.00
9167;DHT22;4618;48.818;9.088;2023-08-20T05:12:11;19.50;1.00
9167;DHT22;4618;48.818;9.088;2023-08-20T05:14:36;19.70;1.00
9167;DHT22;4618;48.818;9.088;2023-08-20T05:17:02;19.70;1.00
9167;DHT22;4618;48.818;9.088;2023-08-20T05:19:28;19.70;1.00
9167;DHT22;4618;48.818;9.088;2023-08-20T05:21:53;19.70;1.00
9167;DHT22;4618;48.818;9.088;2023-08-20T05:24:22;19.80;1.00
9167;DHT22;4618;48.818;9.088;2023-08-20T05:26:49;19.90;1.00
9167;DHT22;4618;48.818;9.088;2023-08-20T05:29:28;20.00;1.00
9167;DHT22;4618;48.818;9.088;2023-08-20T05:31:54;20.00;99.90
9167;DHT22;4618;48.818;9.088;2023-08-20T05:34:19;20.10;99.90
9167;DHT22;4618;48.818;9.088;2023-08-20T05:36:45;20.20;99.90
9167;DHT22;4618;48.818;9.088;2023-08-20T05:39:10;20.20;99.90
9167;DHT22;4618;48.818;9.088;2023-08-20T05:41:36;20.20;99.90
9167;DHT22;4618;48.818;9.088;2023-08-20T05:44:01;20.40;99.90
9167;DHT22;4618;48.818;9.088;2023-08-20T05:46:27;20.60;99.90
9167;DHT22;4618;48.818;9.088;2023-08-20T05:48:52;20.80;1.00
9167;DHT22;4618;48.818;9.088;2023-08-20T05:51:18;20.80;1.00
9167;DHT22;4618;48.818;9.088;2023-08-20T05:53:43;21.00;99.90
9167;DHT22;4618;48.818;9.088;2023-08-20T05:56:09;21.20;99.90
9167;DHT22;4618;48.818;9.088;2023-08-20T05:58:34;21.40;66.60
9167;DHT22;4618;48.818;9.088;2023-08-20T06:01:00;21.50;1.00
9167;DHT22;4618;48.818;9.088;2023-08-20T06:03:26;21.70;1.00
9167;DHT22;4618;48.818;9.088;2023-08-20T06:05:51;22.00;1.00
9167;DHT22;4618;48.818;9.088;2023-08-20T06:08:17;22.30;99.90
9167;DHT22;4618;48.818;9.088;2023-08-20T06:10:42;22.60;1.00
9167;DHT22;4618;48.818;9.088;2023-08-20T06:13:08;22.90;1.00
9167;DHT22;4618;48.818;9.088;2023-08-20T06:15:33;23.10;1.00
9167;DHT22;4618;48.818;9.088;2023-08-20T06:17:59;23.40;99.90
9167;DHT22;4618;48.818;9.088;2023-08-20T06:20:24;23.50;35.70
9167;DHT22;4618;48.818;9.088;2023-08-20T06:22:50;23.60;99.90
9167;DHT22;4618;48.818;9.088;2023-08-20T06:25:15;23.70;38.00
9167;DHT22;4618;48.818;9.088;2023-08-20T06:27:41;23.80;1.00
9167;DHT22;4618;48.818;9.088;2023-08-20T06:30:07;24.00;1.00
9167;DHT22;4618;48.818;9.088;2023-08-20T06:32:34;24.20;1.00
9167;DHT22;4618;48.818;9.088;2023-08-20T06:35:00;24.30;1.00
9167;DHT22;4618;48.818;9.088;2023-08-20T06:37:25;24.50;99.90
9167;DHT22;4618;48.818;9.088;2023-08-20T06:39:51;24.70;99.90
9167;DHT22;4618;48.818;9.088;2023-08-20T06:42:16;24.90;46.10
9167;DHT22;4618;48.818;9.088;2023-08-20T06:44:42;25.20;1.00
9167;DHT22;4618;48.818;9.088;2023-08-20T06:47:08;25.40;1.00
9167;DHT22;4618;48.818;9.088;2023-08-20T06:49:33;25.40;1.00
9167;DHT22;4618;48.818;9.088;2023-08-20T06:51:59;25.40;99.90
9167;DHT22;4618;48.818;9.088;2023-08-20T06:54:24;25.40;1.00
9167;DHT22;4618;48.818;9.088;2023-08-20T06:56:50;25.70;1.00
9167;DHT22;4618;48.818;9.088;2023-08-20T06:59:15;25.90;99.90
9167;DHT22;4618;48.818;9.088;2023-08-20T07:01:41;26.10;99.90
9167;DHT22;4618;48.818;9.088;2023-08-20T07:04:07;26.10;99.90
9167;DHT22;4618;48.818;9.088;2023-08-20T07:06:33;25.90;99.90
9167;DHT22;4618;48.818;9.088;2023-08-20T07:08:59;26.10;99.90
9167;DHT22;4618;48.818;9.088;2023-08-20T07:11:24;25.70;99.90
9167;DHT22;4618;48.818;9.088;2023-08-20T07:13:50;25.70;1.00
9167;DHT22;4618;48.818;9.088;2023-08-20T07:16:15;25.70;1.00
9167;DHT22;4618;48.818;9.088;2023-08-20T07:18:41;25.80;1.00
9167;DHT22;4618;48.818;9.088;2023-08-20T07:21:06;25.80;99.90
9167;DHT22;4618;48.818;9.088;2023-08-20T07:23:33;25.90;99.90
9167;DHT22;4618;48.818;9.088;2023-08-20T07:26:09;26.00;99.20
9167;DHT22;4618;48.818;9.088;2023-08-20T07:28:36;25.90;99.90
9167;DHT22;4618;48.818;9.088;2023-08-20T07:31:20;25.90;99.90
9167;DHT22;4618;48.818;9.088;2023-08-20T07:33:50;26.20;99.90
9167;DHT22;4618;48.818;9.088;2023-08-20T07:36:16;26.60;1.00
9167;DHT22;4618;48.818;9.088;2023-08-20T07:38:42;26.70;1.00
9167;DHT22;4618;48.818;9.088;2023-08-20T07:41:11;26.80;1.00
9167;DHT22;4618;48.818;9.088;2023-08-20T07:43:38;26.80;1.00
9167;DHT22;4618;48.818;9.088;2023-08-20T07:46:05;26.80;1.00
9167;DHT22;4618;48.818;9.088;2023-08-20T07:48:30;26.70;1.00
9167;DHT22;4618;48.818;9.088;2023-08-20T07:50:56;26.50;1.00
9167;DHT22;4618;48.818;9.088;2023-08-20T07:53:22;26.60;99.90
9167;DHT22;4618;48.818;9.088;2023-08-20T07:55:47;26.60;1.00
9167;DHT22;4618;48.818;9.088;2023-08-20T07:58:13;26.60;99.90
9167;DHT22;4618;48.818;9.088;2023-08-20T08:00:38;26.80;99.90
9167;DHT22;4618;48.818;9.088;2023-08-20T08:03:04;27.20;14.60
9167;DHT22;4618;48.818;9.088;2023-08-20T08:05:29;27.80;1.00
9167;DHT22;4618;48.818;9.088;2023-08-20T08:07:55;28.80;98.90
9167;DHT22;4618;48.818;9.088;2023-08-20T08:10:21;29.50;1.00
9167;DHT22;4618;48.818;9.088;2023-08-20T08:12:46;29.70;99.90
9167;DHT22;4618;48.818;9.088;2023-08-20T08:15:12;30.00;99.90
9167;DHT22;4618;48.818;9.088;2023-08-20T08:17:38;30.40;99.90
9167;DHT22;4618;48.818;9.088;2023-08-20T08:20:04;30.80;99.90
9167;DHT22;4618;48.818;9.088;2023-08-20T08:22:30;31.20;99.90
9167;DHT22;4618;48.818;9.088;2023-08-20T08:24:55;31.60;99.90
9167;DHT22;4618;48.818;9.088;2023-08-20T08:27:21;31.70;99.90
9167;DHT22;4618;48.818;9.088;2023-08-20T08:29:46;32.00;99.90
9167;DHT22;4618;48.818;9.088;2023-08-20T08:32:12;32.30;99.90
9167;DHT22;4618;48.818;9.088;2023-08-20T08:34:38;32.50;99.90
9167;DHT22;4618;48.818;9.088;2023-08-20T08:37:03;32.90;99.90
9167;DHT22;4618;48.818;9.088;2023-08-20T08:39:29;33.10;99.90
9167;DHT22;4618;48.818;9.088;2023-08-20T08:42:00;33.10;99.90
9167;DHT22;4618;48.818;9.088;2023-08-20T08:44:28;33.40;94.20
9167;DHT22;4618;48.818;9.088;2023-08-20T08:46:53;33.30;93.60
9167;DHT22;4618;48.818;9.088;2023-08-20T08:49:19;33.80;92.20
9167;DHT22;4618;48.818;9.088;2023-08-20T08:51:46;33.40;93.10
9167;DHT22;4618;48.818;9.088;2023-08-20T08:54:13;33.80;84.40
9167;DHT22;4618;48.818;9.088;2023-08-20T08:56:40;34.10;94.80
9167;DHT22;4618;48.818;9.088;2023-08-20T08:59:06;34.60;60.90
9167;DHT22;4618;48.818;9.088;2023-08-20T09:01:31;34.60;58.20
9167;DHT22;4618;48.818;9.088;2023-08-20T09:03:57;34.40;59.00
9167;DHT22;4618;48.818;9.088;2023-08-20T09:06:23;34.50;56.90
9167;DHT22;4618;48.818;9.088;2023-08-20T09:08:48;35.10;48.60
9167;DHT22;4618;48.818;9.088;2023-08-20T09:11:14;35.60;42.10
9167;DHT22;4618;48.818;9.088;2023-08-20T09:13:41;36.00;34.00
9167;DHT22;4618;48.818;9.088;2023-08-20T09:16:09;35.80;29.40
9167;DHT22;4618;48.818;9.088;2023-08-20T09:18:41;36.20;27.30
9167;DHT22;4618;48.818;9.088;2023-08-20T09:21:10;36.40;24.80
9167;DHT22;4618;48.818;9.088;2023-08-20T09:23:36;36.60;20.70
9167;DHT22;4618;48.818;9.088;2023-08-20T09:26:04;36.40;19.50
9167;DHT22;4618;48.818;9.088;2023-08-20T09:28:44;35.90;19.60
9167;DHT22;4618;48.818;9.088;2023-08-20T09:31:10;36.60;19.70
9167;DHT22;4618;48.818;9.088;2023-08-20T09:33:35;37.20;15.50
9167;DHT22;4618;48.818;9.088;2023-08-20T09:38:29;37.50;1.00
9167;DHT22;4618;48.818;9.088;2023-08-20T09:40:55;38.00;2.70
9167;DHT22;4618;48.818;9.088;2023-08-20T09:43:24;38.10;1.00
9167;DHT22;4618;48.818;9.088;2023-08-20T09:45:54;38.20;1.00
9167;DHT22;4618;48.818;9.088;2023-08-20T09:48:20;37.90;1.00
9167;DHT22;4618;48.818;9.088;2023-08-20T09:50:47;37.00;1.00
9167;DHT22;4618;48.818;9.088;2023-08-20T09:55:52;36.80;1.00
9167;DHT22;4618;48.818;9.088;2023-08-20T09:58:21;37.50;1.00
9167;DHT22;4618;48.818;9.088;2023-08-20T10:00:51;37.50;1.00
9167;DHT22;4618;48.818;9.088;2023-08-20T10:03:18;37.60;1.00
9167;DHT22;4618;48.818;9.088;2023-08-20T10:05:46;38.40;1.00
9167;DHT22;4618;48.818;9.088;2023-08-20T10:08:14;38.90;1.00
9167;DHT22;4618;48.818;9.088;2023-08-20T10:10:40;39.40;1.00
9167;DHT22;4618;48.818;9.088;2023-08-20T10:13:06;39.40;1.00
9167;DHT22;4618;48.818;9.088;2023-08-20T10:15:32;39.80;1.00
9167;DHT22;4618;48.818;9.088;2023-08-20T10:18:00;40.10;1.00
9167;DHT22;4618;48.818;9.088;2023-08-20T10:20:29;40.40;1.00
9167;DHT22;4618;48.818;9.088;2023-08-20T10:23:00;40.30;1.00
9167;DHT22;4618;48.818;9.088;2023-08-20T10:25:26;40.20;1.00
9167;DHT22;4618;48.818;9.088;2023-08-20T10:27:52;39.70;1.00
9167;DHT22;4618;48.818;9.088;2023-08-20T10:30:28;39.80;1.00
9167;DHT22;4618;48.818;9.088;2023-08-20T10:32:57;39.80;1.00
9167;DHT22;4618;48.818;9.088;2023-08-20T10:35:26;40.00;1.00
9167;DHT22;4618;48.818;9.088;2023-08-20T10:38:05;40.60;1.00
9167;DHT22;4618;48.818;9.088;2023-08-20T10:46:22;40.80;1.00
9167;DHT22;4618;48.818;9.088;2023-08-20T10:51:25;40.20;1.00
9167;DHT22;4618;48.818;9.088;2023-08-20T10:59:26;41.70;1.00
9167;DHT22;4618;48.818;9.088;2023-08-20T11:04:25;42.50;1.00
9167;DHT22;4618;48.818;9.088;2023-08-20T11:06:56;42.40;1.00
9167;DHT22;4618;48.818;9.088;2023-08-20T11:09:24;42.10;1.00
9167;DHT22;4618;48.818;9.088;2023-08-20T11:11:53;42.10;1.00
9167;DHT22;4618;48.818;9.088;2023-08-20T11:14:19;42.10;1.00
9167;DHT22;4618;48.818;9.088;2023-08-20T11:16:46;40.60;1.00
9167;DHT22;4618;48.818;9.088;2023-08-20T11:19:12;39.40;1.00
9167;DHT22;4618;48.818;9.088;2023-08-20T11:21:39;40.20;1.00
9167;DHT22;4618;48.818;9.088;2023-08-20T11:24:06;41.20;1.00
9167;DHT22;4618;48.818;9.088;2023-08-20T11:26:33;41.50;1.00
9167;DHT22;4618;48.818;9.088;2023-08-20T11:29:00;42.00;1.00
9167;DHT22;4618;48.818;9.088;2023-08-20T11:31:25;42.60;1.00
9167;DHT22;4618;48.818;9.088;2023-08-20T11:33:51;42.10;1.00
9167;DHT22;4618;48.818;9.088;2023-08-20T11:36:18;42.50;1.00
9167;DHT22;4618;48.818;9.088;2023-08-20T11:38:50;43.30;1.00
9167;DHT22;4618;48.818;9.088;2023-08-20T11:41:16;44.20;1.00
9167;DHT22;4618;48.818;9.088;2023-08-20T11:43:42;43.90;1.00
9167;DHT22;4618;48.818;9.088;2023-08-20T11:46:13;43.90;1.00
9167;DHT22;4618;48.818;9.088;2023-08-20T11:48:58;43.30;1.00
9167;DHT22;4618;48.818;9.088;2023-08-20T11:51:24;43.90;1.00
9167;DHT22;4618;48.818;9.088;2023-08-20T11:53:50;44.30;1.00
9167;DHT22;4618;48.818;9.088;2023-08-20T11:56:16;43.80;1.00
9167;DHT22;4618;48.818;9.088;2023-08-20T11:58:41;42.60;1.00
9167;DHT22;4618;48.818;9.088;2023-08-20T12:01:10;43.50;1.00
9167;DHT22;4618;48.818;9.088;2023-08-20T12:03:38;43.60;1.00
9167;DHT22;4618;48.818;9.088;2023-08-20T12:06:20;43.80;1.00
9167;DHT22;4618;48.818;9.088;2023-08-20T12:08:46;43.90;1.00
9167;DHT22;4618;48.818;9.088;2023-08-20T12:11:12;43.60;1.00
9167;DHT22;4618;48.818;9.088;2023-08-20T12:13:38;42.90;1.00
9167;DHT22;4618;48.818;9.088;2023-08-20T12:16:03;42.90;1.00
9167;DHT22;4618;48.818;9.088;2023-08-20T12:18:29;43.30;1.00
9167;DHT22;4618;48.818;9.088;2023-08-20T12:20:55;43.70;1.00
9167;DHT22;4618;48.818;9.088;2023-08-20T12:23:21;44.30;1.00
9167;DHT22;4618;48.818;9.088;2023-08-20T12:25:50;43.80;1.00
9167;DHT22;4618;48.818;9.088;2023-08-20T12:28:16;44.00;1.00
9167;DHT22;4618;48.818;9.088;2023-08-20T12:30:43;44.00;1.00
9167;DHT22;4618;48.818;9.088;2023-08-20T12:33:09;43.80;1.00
9167;DHT22;4618;48.818;9.088;2023-08-20T12:35:34;43.80;1.00
9167;DHT22;4618;48.818;9.088;2023-08-20T12:40:26;43.70;1.00
9167;DHT22;4618;48.818;9.088;2023-08-20T12:42:52;43.10;1.00
9167;DHT22;4618;48.818;9.088;2023-08-20T12:45:17;44.30;1.00
9167;DHT22;4618;48.818;9.088;2023-08-20T12:47:43;44.70;1.00
9167;DHT22;4618;48.818;9.088;2023-08-20T12:50:09;44.40;1.00
9167;DHT22;4618;48.818;9.088;2023-08-20T12:52:35;43.10;1.00
9167;DHT22;4618;48.818;9.088;2023-08-20T12:55:01;42.50;1.00
9167;DHT22;4618;48.818;9.088;2023-08-20T12:57:27;42.60;1.00
9167;DHT22;4618;48.818;9.088;2023-08-20T12:59:53;42.50;1.00
9167;DHT22;4618;48.818;9.088;2023-08-20T13:02:19;41.70;1.00
9167;DHT22;4618;48.818;9.088;2023-08-20T13:04:46;42.00;1.00
9167;DHT22;4618;48.818;9.088;2023-08-20T13:07:12;42.30;1.00
9167;DHT22;4618;48.818;9.088;2023-08-20T13:09:38;42.70;1.00
9167;DHT22;4618;48.818;9.088;2023-08-20T13:12:05;42.80;1.00
9167;DHT22;4618;48.818;9.088;2023-08-20T13:14:35;42.40;1.00
9167;DHT22;4618;48.818;9.088;2023-08-20T13:17:01;42.40;1.00
9167;DHT22;4618;48.818;9.088;2023-08-20T13:19:27;42.80;1.00
9167;DHT22;4618;48.818;9.088;2023-08-20T13:21:53;42.60;1.00
9167;DHT22;4618;48.818;9.088;2023-08-20T13:24:18;42.60;1.00
9167;DHT22;4618;48.818;9.088;2023-08-20T13:26:44;42.90;1.00
9167;DHT22;4618;48.818;9.088;2023-08-20T13:29:11;43.40;1.00
9167;DHT22;4618;48.818;9.088;2023-08-20T13:31:36;43.90;1.00
9167;DHT22;4618;48.818;9.088;2023-08-20T13:34:02;44.10;1.00
9167;DHT22;4618;48.818;9.088;2023-08-20T13:36:27;43.40;1.00
9167;DHT22;4618;48.818;9.088;2023-08-20T13:38:53;44.10;1.00
9167;DHT22;4618;48.818;9.088;2023-08-20T13:41:18;44.30;1.00
9167;DHT22;4618;48.818;9.088;2023-08-20T13:43:44;43.60;1.00
9167;DHT22;4618;48.818;9.088;2023-08-20T13:46:10;43.50;1.00
9167;DHT22;4618;48.818;9.088;2023-08-20T13:48:35;43.30;1.00
9167;DHT22;4618;48.818;9.088;2023-08-20T13:51:01;43.10;1.00
9167;DHT22;4618;48.818;9.088;2023-08-20T13:53:26;42.60;1.00
9167;DHT22;4618;48.818;9.088;2023-08-20T13:55:52;42.30;1.00
9167;DHT22;4618;48.818;9.088;2023-08-20T13:58:19;42.70;1.00
9167;DHT22;4618;48.818;9.088;2023-08-20T14:00:44;43.10;1.00
9167;DHT22;4618;48.818;9.088;2023-08-20T14:03:10;43.20;1.00
9167;DHT22;4618;48.818;9.088;2023-08-20T14:05:35;43.40;1.00
9167;DHT22;4618;48.818;9.088;2023-08-20T14:08:01;43.60;1.00
9167;DHT22;4618;48.818;9.088;2023-08-20T14:10:26;43.50;1.00
9167;DHT22;4618;48.818;9.088;2023-08-20T14:12:52;43.30;1.00
9167;DHT22;4618;48.818;9.088;2023-08-20T14:15:18;42.90;1.00
9167;DHT22;4618;48.818;9.088;2023-08-20T14:17:43;43.70;1.00
9167;DHT22;4618;48.818;9.088;2023-08-20T14:20:09;43.80;1.00
9167;DHT22;4618;48.818;9.088;2023-08-20T14:22:36;44.00;1.00
9167;DHT22;4618;48.818;9.088;2023-08-20T14:25:03;44.10;1.00
9167;DHT22;4618;48.818;9.088;2023-08-20T14:27:29;44.00;1.00
9167;DHT22;4618;48.818;9.088;2023-08-20T14:29:54;43.30;1.00
9167;DHT22;4618;48.818;9.088;2023-08-20T14:32:20;42.80;1.00
9167;DHT22;4618;48.818;9.088;2023-08-20T14:34:46;42.50;1.00
9167;DHT22;4618;48.818;9.088;2023-08-20T14:37:11;42.70;1.00
9167;DHT22;4618;48.818;9.088;2023-08-20T14:39:39;42.70;1.00
9167;DHT22;4618;48.818;9.088;2023-08-20T14:42:04;43.10;1.00
9167;DHT22;4618;48.818;9.088;2023-08-20T14:44:30;43.30;1.00
9167;DHT22;4618;48.818;9.088;2023-08-20T14:46:55;43.30;1.00
9167;DHT22;4618;48.818;9.088;2023-08-20T14:49:21;42.90;1.00
9167;DHT22;4618;48.818;9.088;2023-08-20T14:51:47;42.50;1.00
9167;DHT22;4618;48.818;9.088;2023-08-20T14:54:12;41.00;1.00
9167;DHT22;4618;48.818;9.088;2023-08-20T14:56:38;39.30;1.00
9167;DHT22;4618;48.818;9.088;2023-08-20T14:59:03;37.90;1.00
9167;DHT22;4618;48.818;9.088;2023-08-20T15:01:29;37.10;1.00
9167;DHT22;4618;48.818;9.088;2023-08-20T15:03:55;36.70;1.00
9167;DHT22;4618;48.818;9.088;2023-08-20T15:06:21;36.50;1.00
9167;DHT22;4618;48.818;9.088;2023-08-20T15:08:48;36.60;1.00
9167;DHT22;4618;48.818;9.088;2023-08-20T15:11:13;37.40;1.00
9167;DHT22;4618;48.818;9.088;2023-08-20T15:13:39;37.40;1.00
9167;DHT22;4618;48.818;9.088;2023-08-20T15:16:04;37.80;1.00
9167;DHT22;4618;48.818;9.088;2023-08-20T15:18:30;38.30;1.00
9167;DHT22;4618;48.818;9.088;2023-08-20T15:20:59;37.90;1.00
9167;DHT22;4618;48.818;9.088;2023-08-20T15:23:27;37.10;1.00
9167;DHT22;4618;48.818;9.088;2023-08-20T15:25:54;36.60;1.00
9167;DHT22;4618;48.818;9.088;2023-08-20T15:28:23;37.20;1.00
9167;DHT22;4618;48.818;9.088;2023-08-20T15:30:51;38.10;1.00
9167;DHT22;4618;48.818;9.088;2023-08-20T15:33:17;38.40;1.00
9167;DHT22;4618;48.818;9.088;2023-08-20T15:35:42;38.20;1.00
9167;DHT22;4618;48.818;9.088;2023-08-20T15:38:09;38.10;1.00
9167;DHT22;4618;48.818;9.088;2023-08-20T15:40:37;38.10;1.00
9167;DHT22;4618;48.818;9.088;2023-08-20T15:43:03;38.50;1.00
9167;DHT22;4618;48.818;9.088;2023-08-20T15:45:29;38.50;1.00
9167;DHT22;4618;48.818;9.088;2023-08-20T15:47:54;39.00;1.00
9167;DHT22;4618;48.818;9.088;2023-08-20T15:50:20;39.10;1.00
9167;DHT22;4618;48.818;9.088;2023-08-20T15:52:47;38.80;1.00
9167;DHT22;4618;48.818;9.088;2023-08-20T15:55:13;38.90;1.00
9167;DHT22;4618;48.818;9.088;2023-08-20T15:57:38;39.20;1.00
9167;DHT22;4618;48.818;9.088;2023-08-20T16:00:05;39.20;1.00
9167;DHT22;4618;48.818;9.088;2023-08-20T16:02:30;38.80;1.00
9167;DHT22;4618;48.818;9.088;2023-08-20T16:04:56;38.70;1.00
9167;DHT22;4618;48.818;9.088;2023-08-20T16:07:21;38.60;1.00
9167;DHT22;4618;48.818;9.088;2023-08-20T16:09:47;38.50;1.00
9167;DHT22;4618;48.818;9.088;2023-08-20T16:12:13;38.80;1.00
9167;DHT22;4618;48.818;9.088;2023-08-20T16:14:38;38.70;1.00
9167;DHT22;4618;48.818;9.088;2023-08-20T16:17:04;38.40;1.00
9167;DHT22;4618;48.818;9.088;2023-08-20T16:19:29;38.20;1.00
9167;DHT22;4618;48.818;9.088;2023-08-20T16:21:55;38.10;1.00
9167;DHT22;4618;48.818;9.088;2023-08-20T16:24:21;38.10;1.00
9167;DHT22;4618;48.818;9.088;2023-08-20T16:26:46;38.30;1.00
9167;DHT22;4618;48.818;9.088;2023-08-20T16:29:12;38.50;1.00
9167;DHT22;4618;48.818;9.088;2023-08-20T16:31:37;38.60;1.00
9167;DHT22;4618;48.818;9.088;2023-08-20T16:34:03;38.50;1.00
9167;DHT22;4618;48.818;9.088;2023-08-20T16:36:28;37.80;1.00
9167;DHT22;4618;48.818;9.088;2023-08-20T16:38:54;36.60;1.00
9167;DHT22;4618;48.818;9.088;2023-08-20T16:41:19;35.50;1.00